Time;durP1;ratioP1;P1;durP2;ratioP2;P2;SDS_P1;SDS_P2;PMS_P1;PMS_P2;Temp;Humidity;BMP_temperature;BMP_pressure;BME280_temperature;BME280_humidity;BME280_pressure;Samples;Min_cycle;Max_cycle;Signal;HPM_P1;HPM_P2
2023/08/12 14:06:50;;;;;;;6.12;1.90;;;;;;;33.93;23.57;100651.73;1868300;76;25428;-48
2023/08/12 14:09:18;;;;;;;5.58;2.30;;;;;;;33.63;23.09;100654.73;1824560;78;25201;-50
2023/08/12 14:11:44;;;;;;;4.12;2.12;;;;;;;33.24;23.15;100647.98;1815382;78;27586;-52
2023/08/12 14:14:10;;;;;;;4.70;2.10;;;;;;;33.00;23.79;100651.05;1783050;80;25792;-53
2023/08/12 14:16:36;;;;;;;6.20;2.20;;;;;;;32.86;23.79;100651.75;1783120;80;25445;-62
2023/08/12 14:19:04;;;;;;;4.35;2.17;;;;;;;32.69;25.03;100641.34;1783114;80;25453;-58
2023/08/12 14:21:30;;;;;;;4.62;2.15;;;;;;;32.36;25.81;100652.83;1783185;80;25392;-60
2023/08/12 14:23:56;;;;;;;6.75;2.10;;;;;;;31.91;26.86;100642.70;1783138;80;27460;-60
2023/08/12 14:26:22;;;;;;;5.92;1.77;;;;;;;31.45;26.91;100636.51;1783018;80;25370;-60
2023/08/12 14:28:49;;;;;;;2.60;1.82;;;;;;;31.25;26.89;100636.69;1783089;80;25531;-60
2023/08/12 14:31:15;;;;;;;8.58;2.27;;;;;;;31.06;26.64;100639.22;1783095;80;25595;-62
2023/08/12 14:33:41;;;;;;;6.22;2.52;;;;;;;30.93;26.61;100634.79;1783162;80;25536;-61
2023/08/12 14:36:07;;;;;;;5.87;2.33;;;;;;;30.72;26.83;100632.76;1783128;80;27458;-61
2023/08/12 14:38:34;;;;;;;3.58;2.05;;;;;;;30.62;26.53;100624.06;1782996;80;25456;-58
2023/08/12 14:41:00;;;;;;;5.00;1.87;;;;;;;30.39;27.41;100623.04;1783109;80;25396;-60
2023/08/12 14:43:26;;;;;;;4.30;2.27;;;;;;;30.25;29.04;100623.38;1783074;80;25381;-59
2023/08/12 14:45:53;;;;;;;5.10;2.22;;;;;;;30.12;27.87;100617.71;1783120;80;25520;-59
2023/08/12 14:48:19;;;;;;;4.42;2.12;;;;;;;30.02;27.84;100620.16;1783147;80;28084;-60
2023/08/12 14:50:46;;;;;;;4.28;2.12;;;;;;;29.90;28.53;100619.65;1783045;80;25384;-62
2023/08/12 14:53:12;;;;;;;3.67;1.90;;;;;;;29.76;28.51;100612.97;1783091;80;25351;-60
2023/08/12 14:55:38;;;;;;;3.25;1.90;;;;;;;29.70;28.44;100611.31;1783087;80;25658;-60
2023/08/12 14:58:04;;;;;;;3.77;2.20;;;;;;;29.58;29.18;100599.45;1783145;80;25629;-58
2023/08/12 15:00:33;;;;;;;6.03;2.35;;;;;;;29.49;29.33;100609.80;1783156;80;29693;-59
2023/08/12 15:02:59;;;;;;;2.83;1.82;;;;;;;29.34;28.47;100606.54;1783075;79;25424;-59
2023/08/12 15:05:26;;;;;;;3.22;2.70;;;;;;;29.25;29.54;100606.33;1783010;79;25382;-59
2023/08/12 15:07:52;;;;;;;7.25;3.00;;;;;;;29.10;29.35;100600.26;1783064;80;25383;-58
2023/08/12 15:10:18;;;;;;;2.55;2.20;;;;;;;29.05;29.56;100602.94;1783150;80;25356;-61
2023/08/12 15:12:44;;;;;;;3.62;2.45;;;;;;;29.02;29.45;100596.05;1783165;80;27455;-58
2023/08/12 15:15:10;;;;;;;5.33;3.35;;;;;;;29.03;29.42;100603.17;1783029;80;25556;-58
2023/08/12 15:17:37;;;;;;;5.42;2.72;;;;;;;28.99;29.81;100597.67;1782680;80;25606;-57
2023/08/12 15:20:06;;;;;;;4.28;2.95;;;;;;;28.91;30.31;100596.25;1782464;80;25529;-56
2023/08/12 15:22:33;;;;;;;6.35;2.60;;;;;;;28.83;30.33;100592.05;1782587;80;25599;-57
2023/08/12 15:24:59;;;;;;;4.42;3.22;;;;;;;28.81;30.22;100591.67;1782536;80;27578;-58
2023/08/12 15:27:26;;;;;;;4.85;3.83;;;;;;;28.77;30.31;100590.97;1782423;80;25416;-57
2023/08/12 15:29:53;;;;;;;4.78;2.72;;;;;;;28.69;29.86;100593.13;1782551;80;25457;-57
2023/08/12 15:32:20;;;;;;;7.87;2.60;;;;;;;28.66;29.69;100593.36;1782549;80;25575;-57
2023/08/12 15:34:46;;;;;;;3.92;2.85;;;;;;;28.63;29.85;100594.81;1782566;80;25444;-57
2023/08/12 15:37:12;;;;;;;10.60;9.80;;;;;;;28.56;30.37;100585.22;1782527;80;29598;-57
2023/08/12 15:39:38;;;;;;;4.97;2.55;;;;;;;28.48;30.24;100585.30;1782500;80;27275;-54
2023/08/12 15:42:07;;;;;;;3.25;2.50;;;;;;;28.43;30.05;100578.06;1782506;80;25444;-53
2023/08/12 15:44:36;;;;;;;3.92;2.37;;;;;;;28.42;30.18;100587.62;1782606;80;25622;-54
2023/08/12 15:47:04;;;;;;;4.75;2.75;;;;;;;28.38;30.38;100578.55;1782563;80;25375;-54
2023/08/12 15:49:34;;;;;;;7.85;2.70;;;;;;;28.30;30.23;100585.63;1782521;80;28059;-54
2023/08/12 15:52:01;;;;;;;;;;;;;;;28.22;30.42;100576.45;1754163;80;25551;-55
2023/08/12 15:54:28;;;;;;;7.10;2.80;;;;;;;28.15;30.37;100575.97;1782516;80;25539;-53
2023/08/12 15:56:56;;;;;;;3.77;2.30;;;;;;;28.08;30.63;100583.05;1782454;80;25593;-56
2023/08/12 15:59:22;;;;;;;4.53;2.60;;;;;;;28.04;30.91;100583.08;1782882;79;25539;-51
2023/08/12 16:01:49;;;;;;;4.35;2.52;;;;;;;28.00;30.63;100578.80;1782523;80;27490;-52
2023/08/12 16:04:15;;;;;;;24.18;20.85;;;;;;;27.95;30.88;100580.06;1782340;80;27289;-51
2023/08/12 16:06:42;;;;;;;8.08;4.75;;;;;;;27.91;30.94;100569.59;1792254;79;25463;-50
2023/08/12 16:09:09;;;;;;;5.20;3.12;;;;;;;27.88;30.87;100575.38;1796978;79;25516;-52
2023/08/12 16:11:35;;;;;;;3.85;2.50;;;;;;;27.86;31.48;100573.63;1797015;79;25441;-51
2023/08/12 16:14:02;;;;;;;7.12;2.70;;;;;;;27.82;31.80;100567.93;1797011;79;27478;-51
2023/08/12 16:16:28;;;;;;;4.92;2.80;;;;;;;27.76;31.62;100567.63;1778001;80;25444;-55
2023/08/12 16:18:54;;;;;;;4.15;2.52;;;;;;;27.71;31.79;100565.33;1778020;80;25557;-52
2023/08/12 16:21:21;;;;;;;8.20;3.12;;;;;;;27.67;31.49;100565.39;1778115;80;25801;-51
2023/08/12 16:23:48;;;;;;;5.78;3.00;;;;;;;27.62;31.77;100569.22;1778181;80;25465;-54
2023/08/12 16:26:15;;;;;;;5.72;3.27;;;;;;;27.56;31.92;100568.30;1778035;80;28120;-51
2023/08/12 16:28:42;;;;;;;7.05;3.40;;;;;;;27.51;32.10;100570.16;1778016;80;25559;-53
2023/08/12 16:31:09;;;;;;;5.62;2.70;;;;;;;27.45;32.06;100557.97;1778171;80;25453;-52
2023/08/12 16:33:36;;;;;;;5.22;2.17;;;;;;;27.39;32.45;100559.63;1778095;80;25647;-51
2023/08/12 16:36:03;;;;;;;12.00;6.22;;;;;;;27.31;32.50;100565.09;1778125;80;25453;-51
2023/08/12 16:38:29;;;;;;;4.90;2.92;;;;;;;27.24;32.90;100563.78;1778053;80;27473;-52
2023/08/12 16:40:56;;;;;;;5.20;2.50;;;;;;;27.17;32.97;100566.05;1778027;80;27271;-50
2023/08/12 16:43:23;;;;;;;3.02;2.02;;;;;;;27.09;32.99;100569.53;1778059;80;25499;-51
2023/08/12 16:45:51;;;;;;;4.87;2.70;;;;;;;27.00;32.59;100563.10;1759447;81;25438;-51
2023/08/12 16:48:18;;;;;;;4.92;2.37;;;;;;;26.92;33.07;100561.61;1778102;80;25386;-51
2023/08/12 16:50:44;;;;;;;5.17;2.17;;;;;;;26.81;32.83;100560.33;1759447;81;27487;-51
2023/08/12 16:53:10;;;;;;;5.47;2.50;;;;;;;26.70;33.29;100555.52;1733336;81;25806;-51
2023/08/12 16:55:37;;;;;;;6.12;2.75;;;;;;;26.62;33.86;100556.19;1778019;80;25528;-54
2023/08/12 16:58:05;;;;;;;3.60;2.75;;;;;;;26.53;33.76;100556.45;1759429;81;25465;-51
2023/08/12 17:00:31;;;;;;;5.25;2.83;;;;;;;26.44;33.98;100555.55;1778096;80;25583;-50
2023/08/12 17:02:58;;;;;;;5.85;2.83;;;;;;;26.34;34.60;100553.67;1759507;81;28136;-52
2023/08/12 17:05:24;;;;;;;4.33;2.33;;;;;;;26.24;34.54;100557.54;1777885;80;25454;-55
2023/08/12 17:07:51;;;;;;;5.08;3.30;;;;;;;26.13;34.51;100555.45;1782480;80;25460;-53
2023/08/12 17:10:17;;;;;;;6.17;4.33;;;;;;;26.04;34.64;100551.77;1782434;80;25400;-52
2023/08/12 17:12:44;;;;;;;31.10;28.83;;;;;;;25.94;35.18;100556.77;1782437;80;25390;-52
2023/08/12 17:15:11;;;;;;;6.03;3.12;;;;;;;25.82;35.46;100550.34;1782384;80;27473;-52
2023/08/12 17:17:38;;;;;;;7.60;3.85;;;;;;;25.71;35.95;100550.41;1782385;80;25837;-53
2023/08/12 17:20:07;;;;;;;5.83;2.55;;;;;;;25.59;36.03;100550.31;1782453;80;25394;-51
2023/08/12 17:22:33;;;;;;;;;;;;;;;25.47;36.16;100553.53;1785076;80;25625;-52
2023/08/12 17:25:04;;;;;;;30.97;28.70;;;;;;;25.35;36.90;100559.75;1782506;80;25429;-53
2023/08/12 17:27:31;;;;;;;19.05;16.97;;;;;;;25.21;36.92;100550.69;1782278;80;27567;-51
2023/08/12 17:29:58;;;;;;;32.45;30.65;;;;;;;25.05;37.00;100553.94;1746161;80;28046;-50
